Time;durP1;ratioP1;P1;durP2;ratioP2;P2;SDS_P1;SDS_P2;PMS_P1;PMS_P2;Temp;Humidity;BMP_temperature;BMP_pressure;BME280_temperature;BME280_humidity;BME280_pressure;Samples;Min_cycle;Max_cycle;Signal;HPM_P1;HPM_P2
2021/10/17 00:01:13;;;;;;;32.45;22.60;;;9.60;95.60;;;;;;5059419;28;20025;-67
2021/10/17 00:03:38;;;;;;;33.53;22.52;;;9.60;95.70;;;;;;5059265;28;20052;-66
2021/10/17 00:06:04;;;;;;;32.70;22.98;;;9.60;95.80;;;;;;5078039;28;20455;-67
2021/10/17 00:08:30;;;;;;;31.75;23.02;;;9.50;95.80;;;;;;5078463;28;20037;-67
2021/10/17 00:10:56;;;;;;;35.63;22.90;;;9.50;96.30;;;;;;5076994;28;20036;-65
2021/10/17 00:13:22;;;;;;;32.95;22.58;;;9.40;96.10;;;;;;5077187;28;20421;-66
2021/10/17 00:15:47;;;;;;;31.02;22.60;;;9.40;96.20;;;;;;5076987;28;20020;-65
2021/10/17 00:18:13;;;;;;;33.40;22.52;;;9.30;96.30;;;;;;5076926;28;20112;-66
2021/10/17 00:20:39;;;;;;;32.08;21.85;;;9.30;96.50;;;;;;5075960;28;20029;-69
2021/10/17 00:23:05;;;;;;;33.72;23.38;;;9.30;96.70;;;;;;5058633;28;20033;-67
2021/10/17 00:25:31;;;;;;;33.28;22.10;;;9.30;96.80;;;;;;5055485;28;20112;-67
2021/10/17 00:27:57;;;;;;;33.20;23.48;;;9.20;97.00;;;;;;5056265;28;20131;-67
2021/10/17 00:30:22;;;;;;;31.05;22.27;;;9.20;97.20;;;;;;5059935;28;20036;-67
2021/10/17 00:32:48;;;;;;;35.03;23.48;;;9.30;97.30;;;;;;5075129;28;20119;-66
2021/10/17 00:35:14;;;;;;;32.55;23.13;;;9.30;97.30;;;;;;5097216;28;20099;-66
2021/10/17 00:37:41;;;;;;;33.42;23.48;;;9.30;97.40;;;;;;5078843;28;20024;-67
2021/10/17 00:40:10;;;;;;;32.78;21.55;;;9.30;97.50;;;;;;5078509;28;20053;-67
2021/10/17 00:42:37;;;;;;;31.65;21.35;;;9.30;97.40;;;;;;5096895;28;20078;-66
2021/10/17 00:45:11;;;;;;;32.75;22.23;;;9.30;97.20;;;;;;5096885;28;20059;-66
2021/10/17 00:47:37;;;;;;;31.95;21.73;;;9.30;97.00;;;;;;5079021;28;20027;-66
2021/10/17 00:50:04;;;;;;;29.73;21.02;;;9.40;96.80;;;;;;5078362;28;20036;-66
2021/10/17 00:52:30;;;;;;;31.23;21.02;;;9.40;96.70;;;;;;5078250;28;20024;-67
2021/10/17 00:54:55;;;;;;;31.13;22.38;;;9.40;96.40;;;;;;5079045;28;20522;-66
2021/10/17 00:57:21;;;;;;;31.70;21.73;;;9.30;96.20;;;;;;5078386;28;20028;-67
2021/10/17 00:59:49;;;;;;;31.45;22.25;;;9.30;96.10;;;;;;5088702;28;20028;-70
2021/10/17 01:02:15;;;;;;;31.77;22.52;;;9.30;95.90;;;;;;5059151;28;20429;-67
2021/10/17 01:04:41;;;;;;;34.72;21.83;;;9.20;96.10;;;;;;5058352;28;20045;-67
2021/10/17 01:07:08;;;;;;;32.42;21.33;;;9.20;96.30;;;;;;5058326;28;20029;-69
2021/10/17 01:09:35;;;;;;;31.88;21.88;;;9.10;96.30;;;;;;5057442;28;20044;-66
2021/10/17 01:12:01;;;;;;;34.08;23.20;;;9.00;96.30;;;;;;5057779;28;20028;-66
2021/10/17 01:14:27;;;;;;;32.45;23.00;;;9.00;96.50;;;;;;5058009;28;20482;-66
2021/10/17 01:16:53;;;;;;;32.38;23.13;;;8.90;96.70;;;;;;5076012;28;20134;-66
2021/10/17 01:19:20;;;;;;;32.75;24.42;;;8.90;96.90;;;;;;5057812;28;20026;-67
2021/10/17 01:21:47;;;;;;;34.17;23.38;;;8.80;97.10;;;;;;5057710;28;20031;-69
2021/10/17 01:24:17;;;;;;;36.75;24.75;;;8.70;97.30;;;;;;5057908;28;20028;-67
2021/10/17 01:26:44;;;;;;;38.10;25.42;;;8.60;97.50;;;;;;5075835;28;20115;-66
2021/10/17 01:29:10;;;;;;;35.75;24.70;;;8.60;97.70;;;;;;5075899;28;20037;-69
2021/10/17 01:31:47;;;;;;;39.78;24.50;;;8.50;98.00;;;;;;5057827;28;20114;-66
2021/10/17 01:34:14;;;;;;;36.38;25.27;;;8.40;98.30;;;;;;5057693;28;20467;-67
2021/10/17 01:36:41;;;;;;;37.35;25.88;;;8.40;98.80;;;;;;5075686;28;20379;-67
2021/10/17 01:39:10;;;;;;;36.78;25.50;;;8.40;99.10;;;;;;5076039;28;20054;-67
2021/10/17 01:41:36;;;;;;;37.63;26.92;;;8.30;99.20;;;;;;5057623;28;20078;-67
2021/10/17 01:44:02;;;;;;;39.63;27.58;;;8.30;99.30;;;;;;5057440;28;20064;-67
2021/10/17 01:46:28;;;;;;;39.75;26.05;;;8.30;99.50;;;;;;5075395;28;20055;-66
2021/10/17 01:48:54;;;;;;;42.15;27.30;;;8.20;99.70;;;;;;5057486;28;20531;-67
2021/10/17 01:51:19;;;;;;;37.33;25.70;;;8.30;99.90;;;;;;5057475;28;20048;-67
2021/10/17 01:53:45;;;;;;;41.35;27.83;;;8.20;99.70;;;;;;5057770;28;20123;-66
2021/10/17 01:56:11;;;;;;;40.72;27.40;;;8.10;99.90;;;;;;5075350;28;20047;-66
2021/10/17 01:58:36;;;;;;;40.28;27.33;;;8.10;99.90;;;;;;5058208;28;20060;-68
2021/10/17 02:01:03;;;;;;;37.13;25.75;;;8.10;99.90;;;;;;5077258;28;20036;-68
2021/10/17 02:03:29;;;;;;;41.60;26.73;;;8.00;99.90;;;;;;5094903;28;20075;-66
2021/10/17 02:05:54;;;;;;;38.85;27.25;;;8.00;99.90;;;;;;5095882;28;20100;-67
2021/10/17 02:08:20;;;;;;;41.20;27.40;;;7.90;99.90;;;;;;5076985;28;20028;-67
2021/10/17 02:10:46;;;;;;;40.80;27.92;;;7.90;99.90;;;;;;5060431;28;20051;-70
2021/10/17 02:13:11;;;;;;;38.45;27.40;;;7.80;99.90;;;;;;5053574;28;20025;-67
2021/10/17 02:15:37;;;;;;;38.60;26.65;;;7.80;99.90;;;;;;5053491;28;20036;-68
2021/10/17 02:18:03;;;;;;;40.05;26.77;;;7.80;99.90;;;;;;5053589;28;20519;-68
2021/10/17 02:20:32;;;;;;;37.60;26.38;;;7.80;99.90;;;;;;5055033;28;20025;-66
2021/10/17 02:22:59;;;;;;;40.47;27.35;;;7.80;99.90;;;;;;5053137;28;20025;-67
2021/10/17 02:25:25;;;;;;;39.33;26.73;;;7.80;99.90;;;;;;5055062;28;20602;-67
2021/10/17 02:27:51;;;;;;;44.22;28.00;;;7.70;99.90;;;;;;5072210;28;20036;-66
2021/10/17 02:30:16;;;;;;;42.40;28.60;;;7.70;99.90;;;;;;5094553;28;20032;-68
2021/10/17 02:32:42;;;;;;;42.30;28.90;;;7.70;99.90;;;;;;5094605;28;20028;-67
2021/10/17 02:35:08;;;;;;;41.83;28.80;;;7.70;99.90;;;;;;5076591;28;20024;-65
2021/10/17 02:37:34;;;;;;;46.72;30.25;;;7.60;99.90;;;;;;5076662;28;20026;-67
2021/10/17 02:40:00;;;;;;;41.28;28.95;;;7.60;99.90;;;;;;5094567;28;20382;-69
2021/10/17 02:42:26;;;;;;;44.13;29.90;;;7.60;99.90;;;;;;5076630;28;20020;-68
2021/10/17 02:44:51;;;;;;;43.75;29.58;;;7.50;99.90;;;;;;5076327;28;20028;-68
2021/10/17 02:47:17;;;;;;;42.28;28.77;;;7.50;99.90;;;;;;5094586;28;20482;-66
2021/10/17 02:49:43;;;;;;;40.47;28.33;;;7.50;99.90;;;;;;5094582;28;20028;-66
2021/10/17 02:52:08;;;;;;;41.15;28.35;;;7.50;99.90;;;;;;5076260;28;20024;-66
2021/10/17 02:54:34;;;;;;;39.33;27.77;;;7.50;99.90;;;;;;5094459;28;20470;-69
2021/10/17 02:57:00;;;;;;;39.55;28.23;;;7.50;99.90;;;;;;5088000;28;20091;-66
2021/10/17 02:59:25;;;;;;;45.47;28.85;;;7.50;99.90;;;;;;5089431;28;20040;-70
2021/10/17 03:01:51;;;;;;;42.53;27.33;;;7.50;99.90;;;;;;5094329;28;20026;-69
2021/10/17 03:04:17;;;;;;;45.13;26.92;;;7.50;99.90;;;;;;5094297;28;20052;-67
2021/10/17 03:06:43;;;;;;;41.55;27.30;;;7.50;99.90;;;;;;5075948;28;20060;-69
2021/10/17 03:09:09;;;;;;;42.47;26.90;;;7.50;99.90;;;;;;5076013;28;20381;-65
2021/10/17 03:11:35;;;;;;;39.65;25.70;;;7.50;99.90;;;;;;5094007;28;20036;-68
2021/10/17 03:14:02;;;;;;;40.67;27.02;;;7.50;99.90;;;;;;5093893;28;20046;-68
2021/10/17 03:16:28;;;;;;;41.85;25.90;;;7.50;99.90;;;;;;5071086;28;20036;-72
2021/10/17 03:18:54;;;;;;;39.47;26.40;;;7.50;99.90;;;;;;5071350;28;20466;-69
2021/10/17 03:21:19;;;;;;;37.60;25.75;;;7.50;99.90;;;;;;5073513;28;20027;-73
2021/10/17 03:23:45;;;;;;;40.97;26.13;;;7.60;99.90;;;;;;5071665;28;20044;-73
2021/10/17 03:26:11;;;;;;;37.92;26.13;;;7.60;99.90;;;;;;5071512;28;20396;-73
2021/10/17 03:28:36;;;;;;;39.45;25.63;;;7.60;99.90;;;;;;5054087;28;20028;-73
2021/10/17 03:31:06;;;;;;;41.03;25.70;;;7.60;99.90;;;;;;5072148;28;20060;-73
2021/10/17 03:33:32;;;;;;;40.85;27.48;;;7.60;99.90;;;;;;5053617;28;20050;-73
2021/10/17 03:35:57;;;;;;;36.85;24.45;;;7.60;99.90;;;;;;5072577;28;20451;-73
2021/10/17 03:38:23;;;;;;;42.95;26.02;;;7.60;99.90;;;;;;5072839;28;20028;-73
2021/10/17 03:40:49;;;;;;;43.58;27.60;;;7.60;99.90;;;;;;5073283;28;20039;-71
2021/10/17 03:43:14;;;;;;;39.72;25.70;;;7.60;99.90;;;;;;5055538;28;20028;-72
2021/10/17 03:45:40;;;;;;;43.05;28.25;;;7.60;99.90;;;;;;5077636;28;20020;-73
2021/10/17 03:48:07;;;;;;;42.58;26.38;;;7.60;99.90;;;;;;5093507;28;20024;-72
2021/10/17 03:50:33;;;;;;;39.58;25.48;;;7.60;99.90;;;;;;5075634;28;20074;-72
2021/10/17 03:52:59;;;;;;;40.03;25.77;;;7.50;99.90;;;;;;5075466;28;20024;-71
2021/10/17 03:55:25;;;;;;;38.97;25.05;;;7.50;99.90;;;;;;5093768;28;20032;-73
2021/10/17 03:57:51;;;;;;;39.08;26.23;;;7.50;99.90;;;;;;5093625;28;20520;-71
2021/10/17 04:00:16;;;;;;;38.80;26.02;;;7.50;99.90;;;;;;5093422;28;20028;-72
2021/10/17 04:02:42;;;;;;;43.20;27.65;;;7.50;99.90;;;;;;5075477;28;20058;-72
2021/10/17 04:05:08;;;;;;;40.63;26.15;;;7.50;99.90;;;;;;5075050;28;20070;-73
2021/10/17 04:07:36;;;;;;;41.78;26.50;;;7.40;99.90;;;;;;5093345;28;20028;-71
2021/10/17 04:10:03;;;;;;;40.00;25.52;;;7.40;99.90;;;;;;5093579;28;20024;-72
2021/10/17 04:12:29;;;;;;;41.40;26.67;;;7.40;99.90;;;;;;5075043;28;20032;-72
2021/10/17 04:14:54;;;;;;;36.58;25.90;;;7.40;99.90;;;;;;5074741;28;20477;-73
2021/10/17 04:17:20;;;;;;;42.15;26.50;;;7.40;99.90;;;;;;5075449;28;20024;-73
2021/10/17 04:19:46;;;;;;;37.80;25.58;;;7.40;99.90;;;;;;5093015;28;20032;-76
2021/10/17 04:22:11;;;;;;;42.03;27.08;;;7.40;99.90;;;;;;5065408;28;20489;-73
2021/10/17 04:24:37;;;;;;;41.45;26.77;;;7.40;99.90;;;;;;5079182;28;20092;-72
2021/10/17 04:27:07;;;;;;;41.95;28.25;;;7.40;99.90;;;;;;5062838;28;20025;-73
2021/10/17 04:29:34;;;;;;;41.53;28.27;;;7.40;99.90;;;;;;5072958;28;20071;-72
2021/10/17 04:32:00;;;;;;;43.08;27.20;;;7.40;99.90;;;;;;5069326;28;20028;-72
2021/10/17 04:34:25;;;;;;;41.80;26.35;;;7.40;99.90;;;;;;5064104;28;20131;-72
2021/10/17 04:36:51;;;;;;;45.75;29.52;;;7.40;99.90;;;;;;5059735;28;20035;-71
2021/10/17 04:39:17;;;;;;;43.03;28.02;;;7.40;99.90;;;;;;5058062;28;20024;-76
2021/10/17 04:41:42;;;;;;;37.50;25.00;;;7.50;99.90;;;;;;5065991;28;20363;-72
2021/10/17 04:44:08;;;;;;;38.05;25.88;;;7.50;99.90;;;;;;5066694;28;20073;-71
2021/10/17 04:46:34;;;;;;;42.40;27.10;;;7.50;99.90;;;;;;5079174;28;20424;-73
2021/10/17 04:48:59;;;;;;;41.65;27.55;;;7.50;99.90;;;;;;5064474;28;20031;-72
2021/10/17 04:51:25;;;;;;;43.08;26.52;;;7.50;99.90;;;;;;5091355;28;20059;-74
2021/10/17 04:53:51;;;;;;;40.58;26.98;;;7.60;99.90;;;;;;5095754;28;20390;-73
2021/10/17 04:56:17;;;;;;;34.95;24.10;;;7.70;99.90;;;;;;5069389;28;20062;-71
2021/10/17 04:58:42;;;;;;;36.00;24.73;;;7.80;99.90;;;;;;5077431;28;20024;-73
2021/10/17 05:01:09;;;;;;;32.03;22.60;;;8.10;99.90;;;;;;5064315;28;20470;-71
2021/10/17 05:03:35;;;;;;;33.75;22.58;;;8.50;99.90;;;;;;5067747;28;20439;-73
2021/10/17 05:06:01;;;;;;;32.10;21.48;;;8.90;99.90;;;;;;5088241;28;20024;-71
2021/10/17 05:08:26;;;;;;;31.00;20.95;;;9.30;99.90;;;;;;5062170;28;20043;-72
2021/10/17 05:10:52;;;;;;;27.52;20.15;;;9.70;99.90;;;;;;5057852;28;20067;-72
2021/10/17 05:13:18;;;;;;;28.58;19.27;;;10.10;99.90;;;;;;5085915;28;20052;-73
2021/10/17 05:15:43;;;;;;;28.42;19.45;;;10.50;99.90;;;;;;5085633;28;20103;-73
2021/10/17 05:18:09;;;;;;;26.00;18.73;;;10.80;99.90;;;;;;5075474;28;20020;-73
2021/10/17 05:20:35;;;;;;;27.48;18.70;;;11.20;97.70;;;;;;5058510;28;20033;-73
2021/10/17 05:23:01;;;;;;;27.20;18.23;;;11.50;95.10;;;;;;5067749;28;20051;-73
2021/10/17 05:25:26;;;;;;;27.15;18.58;;;11.70;93.50;;;;;;5069943;28;20048;-74
2021/10/17 05:27:52;;;;;;;26.30;18.10;;;12.00;92.20;;;;;;5077759;28;20485;-75
2021/10/17 05:30:18;;;;;;;24.55;18.08;;;12.10;90.50;;;;;;5061668;28;20123;-74
2021/10/17 05:32:44;;;;;;;25.08;18.38;;;12.10;88.60;;;;;;5082657;28;20028;-73
2021/10/17 05:35:09;;;;;;;25.02;17.83;;;12.10;87.50;;;;;;5067504;28;20028;-73
2021/10/17 05:37:35;;;;;;;26.48;17.92;;;12.10;87.80;;;;;;5063686;28;20029;-73
2021/10/17 05:40:01;;;;;;;24.00;17.17;;;12.30;88.40;;;;;;5080286;28;20020;-74
2021/10/17 05:42:26;;;;;;;24.60;17.63;;;12.70;87.80;;;;;;5058327;28;20111;-74
2021/10/17 05:44:52;;;;;;;21.80;15.73;;;13.20;86.00;;;;;;5048625;28;20455;-72
2021/10/17 05:47:18;;;;;;;20.73;15.90;;;13.70;83.90;;;;;;5059076;28;20032;-73
2021/10/17 05:49:43;;;;;;;20.92;15.15;;;14.10;81.90;;;;;;5089305;28;20036;-71
2021/10/17 05:52:09;;;;;;;20.83;15.02;;;14.40;79.90;;;;;;5048534;28;20130;-75
2021/10/17 05:54:34;;;;;;;23.00;15.93;;;14.40;77.10;;;;;;5069655;28;20055;-74
2021/10/17 05:57:00;;;;;;;20.60;15.68;;;14.30;76.60;;;;;;5066456;28;20393;-75
2021/10/17 05:59:26;;;;;;;23.70;16.27;;;14.00;75.60;;;;;;5062660;28;20052;-75
2021/10/17 06:01:51;;;;;;;23.10;16.80;;;13.80;76.10;;;;;;5051383;28;20035;-72
2021/10/17 06:04:17;;;;;;;24.45;16.23;;;13.60;76.60;;;;;;5085282;28;20064;-72
2021/10/17 06:06:43;;;;;;;22.60;16.50;;;13.60;77.20;;;;;;5071876;28;20102;-74
2021/10/17 06:09:10;;;;;;;25.30;17.40;;;13.70;77.10;;;;;;5055033;28;20040;-75
2021/10/17 06:11:36;;;;;;;23.45;16.42;;;13.70;76.60;;;;;;5058188;28;20757;-74
2021/10/17 06:14:03;;;;;;;22.05;16.50;;;13.70;76.30;;;;;;5074925;28;20059;-73
2021/10/17 06:16:28;;;;;;;22.02;14.82;;;13.90;76.40;;;;;;5072208;28;20039;-73
2021/10/17 06:18:55;;;;;;;21.27;16.15;;;14.10;76.50;;;;;;5072534;28;20020;-73
2021/10/17 06:21:21;;;;;;;22.35;16.27;;;14.50;75.80;;;;;;5060161;28;20103;-77
2021/10/17 06:23:46;;;;;;;23.67;16.73;;;14.80;74.20;;;;;;5065595;28;20914;-73
2021/10/17 06:26:28;;;;;;;22.80;15.38;;;15.30;73.60;;;;;;5070618;28;20024;-74
2021/10/17 06:28:54;;;;;;;21.25;15.60;;;16.00;71.50;;;;;;5053412;28;20035;-80
2021/10/17 06:31:20;;;;;;;20.40;15.43;;;16.70;70.50;;;;;;5067746;28;20451;-77
2021/10/17 06:33:46;;;;;;;22.45;16.23;;;17.30;68.40;;;;;;5056383;28;20032;-75
2021/10/17 06:36:11;;;;;;;21.88;15.13;;;17.70;66.60;;;;;;5056044;28;20024;-78
2021/10/17 06:38:37;;;;;;;20.02;14.55;;;18.00;65.50;;;;;;5059088;28;20056;-77
2021/10/17 06:41:03;;;;;;;21.15;14.45;;;18.30;64.00;;;;;;5081008;28;20025;-76
2021/10/17 06:43:29;;;;;;;20.33;14.80;;;18.70;62.90;;;;;;5063904;28;20059;-74
2021/10/17 06:45:54;;;;;;;21.73;14.77;;;18.90;61.70;;;;;;5076161;28;20029;-78
2021/10/17 06:48:20;;;;;;;21.13;14.95;;;19.20;60.50;;;;;;5061180;28;20031;-74
2021/10/17 06:50:46;;;;;;;20.02;14.68;;;19.40;59.60;;;;;;5072363;28;20040;-75
2021/10/17 06:53:11;;;;;;;20.42;14.70;;;19.60;59.10;;;;;;5082024;28;20456;-81
2021/10/17 06:55:37;;;;;;;19.33;14.38;;;19.90;58.20;;;;;;5061681;28;20024;-79
2021/10/17 06:58:03;;;;;;;19.90;14.85;;;20.10;57.30;;;;;;5057230;28;20024;-78
2021/10/17 07:00:28;;;;;;;19.73;14.07;;;20.20;56.90;;;;;;5056073;28;20496;-83
2021/10/17 07:02:54;;;;;;;19.45;13.70;;;20.20;56.50;;;;;;5063671;28;20390;-72
2021/10/17 07:05:20;;;;;;;17.77;13.50;;;20.20;56.00;;;;;;5056522;28;20398;-78
2021/10/17 07:07:45;;;;;;;20.17;14.23;;;20.00;55.50;;;;;;5066660;28;20036;-71
2021/10/17 07:10:11;;;;;;;19.88;14.60;;;19.60;55.80;;;;;;5092139;28;20063;-73
2021/10/17 07:12:37;;;;;;;19.92;14.68;;;19.30;56.50;;;;;;5075689;28;20032;-72
2021/10/17 07:15:03;;;;;;;20.67;14.55;;;19.10;56.90;;;;;;5080177;28;20043;-73
2021/10/17 07:17:29;;;;;;;19.30;13.95;;;18.90;57.10;;;;;;5060216;28;20442;-71
2021/10/17 07:19:54;;;;;;;20.45;14.27;;;18.80;57.70;;;;;;5082836;28;20064;-74
2021/10/17 07:22:20;;;;;;;19.13;13.40;;;18.90;58.10;;;;;;5073385;28;20031;-74
2021/10/17 07:24:46;;;;;;;20.15;13.80;;;19.00;58.20;;;;;;5066450;28;20081;-72
2021/10/17 07:27:12;;;;;;;17.23;13.18;;;19.40;57.50;;;;;;5081249;28;20471;-73
2021/10/17 07:29:37;;;;;;;18.63;13.05;;;19.50;56.90;;;;;;5061135;28;20089;-74
2021/10/17 07:32:03;;;;;;;19.08;13.02;;;19.40;56.80;;;;;;5092068;28;20029;-76
2021/10/17 07:34:29;;;;;;;19.88;13.55;;;19.20;56.80;;;;;;5087024;28;20035;-74
2021/10/17 07:36:55;;;;;;;18.15;12.38;;;19.00;56.90;;;;;;5080162;28;20028;-75
2021/10/17 07:39:21;;;;;;;19.25;11.98;;;19.20;57.50;;;;;;5074456;28;20390;-74
2021/10/17 07:41:49;;;;;;;17.27;12.55;;;19.70;57.00;;;;;;5085311;28;20474;-72
2021/10/17 07:44:17;;;;;;;18.48;12.55;;;20.20;55.80;;;;;;5080642;28;20046;-73
2021/10/17 07:46:43;;;;;;;14.02;11.15;;;20.40;54.90;;;;;;5072912;28;20036;-73
2021/10/17 07:49:09;;;;;;;14.52;10.82;;;20.80;54.60;;;;;;5069064;28;20024;-74
2021/10/17 07:51:35;;;;;;;16.42;11.20;;;21.10;53.40;;;;;;5069334;28;20039;-74
2021/10/17 07:54:00;;;;;;;18.33;12.18;;;21.40;53.00;;;;;;5072193;28;20025;-74
2021/10/17 07:56:26;;;;;;;18.20;10.93;;;21.90;52.60;;;;;;5054493;28;20025;-73
2021/10/17 07:58:52;;;;;;;14.60;11.32;;;22.20;51.40;;;;;;5080479;28;20028;-75
2021/10/17 08:01:18;;;;;;;15.02;11.00;;;22.40;51.10;;;;;;5055629;28;20039;-73
2021/10/17 08:03:44;;;;;;;16.63;11.30;;;22.70;50.80;;;;;;5086721;28;20047;-74
2021/10/17 08:06:10;;;;;;;15.23;11.27;;;22.90;50.10;;;;;;5080244;28;20104;-73
2021/10/17 08:08:36;;;;;;;16.65;11.38;;;23.20;49.30;;;;;;5083726;28;20036;-73
2021/10/17 08:11:02;;;;;;;13.75;9.93;;;23.50;49.20;;;;;;5059585;28;20035;-74
2021/10/17 08:13:28;;;;;;;13.75;10.18;;;23.70;48.20;;;;;;5064780;28;20086;-72
2021/10/17 08:15:55;;;;;;;14.85;10.52;;;23.80;47.90;;;;;;5074360;28;20058;-72
2021/10/17 08:18:22;;;;;;;13.68;10.38;;;24.10;47.60;;;;;;5073903;28;20024;-71
2021/10/17 08:20:48;;;;;;;15.68;10.48;;;24.40;47.00;;;;;;5072826;28;20028;-70
2021/10/17 08:23:14;;;;;;;13.18;9.50;;;24.50;46.20;;;;;;5092803;28;20035;-71
2021/10/17 08:25:40;;;;;;;13.77;10.43;;;24.50;46.10;;;;;;5085106;28;20028;-71
2021/10/17 08:28:06;;;;;;;14.15;9.73;;;24.50;45.80;;;;;;5058836;28;20048;-72
2021/10/17 08:30:31;;;;;;;11.35;8.80;;;24.50;45.90;;;;;;5068004;28;20036;-71
2021/10/17 08:32:57;;;;;;;12.80;9.50;;;24.50;45.80;;;;;;5091197;28;20031;-72
2021/10/17 08:35:23;;;;;;;13.98;9.57;;;24.60;45.90;;;;;;5057444;28;20104;-73
2021/10/17 08:37:49;;;;;;;14.13;10.25;;;24.80;46.00;;;;;;5075980;28;20029;-71
2021/10/17 08:40:15;;;;;;;13.90;9.20;;;25.00;45.50;;;;;;5075217;28;20028;-72
2021/10/17 08:42:41;;;;;;;12.43;8.90;;;25.20;45.00;;;;;;5077407;28;20028;-72
2021/10/17 08:45:07;;;;;;;12.25;8.48;;;25.30;44.60;;;;;;5081635;28;20024;-70
2021/10/17 08:47:34;;;;;;;11.38;8.65;;;25.30;44.40;;;;;;5077387;28;20024;-73
2021/10/17 08:50:01;;;;;;;13.02;9.52;;;25.30;44.10;;;;;;5073678;28;20033;-72
2021/10/17 08:52:26;;;;;;;12.50;8.65;;;25.30;44.30;;;;;;5075937;28;20029;-70
2021/10/17 08:54:52;;;;;;;13.18;8.73;;;25.50;44.40;;;;;;5058214;28;20031;-72
2021/10/17 08:57:18;;;;;;;12.73;8.23;;;25.70;44.20;;;;;;5058114;28;20035;-72
2021/10/17 08:59:48;;;;;;;10.63;6.97;;;25.80;43.70;;;;;;5085399;28;20108;-73
2021/10/17 09:02:18;;;;;;;10.20;7.53;;;25.80;43.40;;;;;;5089954;28;20537;-73
2021/10/17 09:04:56;;;;;;;10.52;6.57;;;25.60;43.10;;;;;;5092859;28;20047;-72
2021/10/17 09:07:22;;;;;;;10.07;7.35;;;25.50;42.80;;;;;;5089668;28;20043;-72
2021/10/17 09:10:13;;;;;;;11.63;7.50;;;25.50;42.90;;;;;;5084685;28;20051;-72
2021/10/17 09:12:42;;;;;;;11.50;7.95;;;25.50;42.80;;;;;;5069025;28;20028;-75
2021/10/17 09:15:18;;;;;;;10.70;6.93;;;25.50;43.00;;;;;;5080054;28;20032;-71
2021/10/17 09:18:07;;;;;;;11.80;7.05;;;25.50;42.70;;;;;;5069770;28;20026;-71
2021/10/17 09:20:35;;;;;;;10.73;6.93;;;25.30;42.30;;;;;;5068769;28;20057;-73
2021/10/17 09:23:03;;;;;;;10.80;7.35;;;25.20;42.80;;;;;;5060738;28;20163;-73
2021/10/17 09:25:34;;;;;;;10.15;6.68;;;25.20;42.50;;;;;;5087024;28;20402;-71
2021/10/17 09:28:00;;;;;;;10.15;6.30;;;24.90;42.50;;;;;;5086664;28;20028;-72
2021/10/17 09:30:26;;;;;;;7.78;5.15;;;24.50;43.00;;;;;;5081397;28;20050;-71
2021/10/17 09:33:08;;;;;;;7.85;4.88;;;24.20;43.30;;;;;;5064716;28;20486;-72
2021/10/17 09:35:35;;;;;;;9.02;5.35;;;24.30;43.90;;;;;;5057638;28;20036;-73
2021/10/17 09:38:01;;;;;;;9.40;5.80;;;24.60;43.80;;;;;;5084108;28;20421;-72
2021/10/17 09:40:28;;;;;;;9.93;6.30;;;24.90;43.60;;;;;;5064174;28;20033;-73
2021/10/17 09:43:26;;;;;;;8.80;6.15;;;25.30;43.50;;;;;;5075407;28;20028;-73
2021/10/17 09:46:18;;;;;;;10.10;6.20;;;25.50;43.20;;;;;;5070721;28;20043;-72
2021/10/17 09:48:45;;;;;;;9.50;6.85;;;25.00;42.80;;;;;;5048809;28;20060;-74
2021/10/17 09:51:15;;;;;;;10.50;7.55;;;24.00;43.40;;;;;;5084860;28;20031;-73
2021/10/17 09:53:44;;;;;;;9.88;6.38;;;23.40;44.70;;;;;;5062544;28;20025;-75
2021/10/17 09:56:32;;;;;;;8.77;6.30;;;22.80;45.60;;;;;;5083241;28;20028;-73
2021/10/17 09:59:00;;;;;;;9.80;6.25;;;22.20;46.70;;;;;;5082615;28;20032;-73
2021/10/17 10:01:27;;;;;;;10.38;6.28;;;21.70;47.60;;;;;;5082609;28;20021;-72
2021/10/17 10:03:54;;;;;;;9.48;6.68;;;21.10;48.60;;;;;;5089959;28;20075;-71
2021/10/17 10:06:24;;;;;;;9.90;5.60;;;20.70;49.40;;;;;;5094352;28;20390;-73
2021/10/17 10:09:04;;;;;;;9.98;5.30;;;20.20;49.60;;;;;;5067850;28;20123;-71
2021/10/17 10:11:31;;;;;;;8.35;4.80;;;19.90;50.10;;;;;;5064782;28;20037;-72
2021/10/17 10:14:03;;;;;;;8.32;4.57;;;19.50;50.20;;;;;;5061744;28;20027;-71
2021/10/17 10:16:30;;;;;;;7.65;4.47;;;19.10;50.60;;;;;;5056855;28;20037;-71
2021/10/17 10:19:02;;;;;;;10.10;5.45;;;18.90;50.80;;;;;;5081065;28;20020;-72
2021/10/17 10:21:29;;;;;;;9.43;5.72;;;18.70;51.20;;;;;;5067587;28;20036;-70
2021/10/17 10:23:57;;;;;;;10.30;5.07;;;18.40;51.30;;;;;;5086073;28;20024;-72
2021/10/17 10:26:26;;;;;;;8.35;4.85;;;18.30;51.80;;;;;;5092337;28;20061;-71
2021/10/17 10:28:53;;;;;;;7.60;4.70;;;18.20;51.90;;;;;;5056928;28;20052;-71
2021/10/17 10:31:45;;;;;;;7.15;3.90;;;18.10;51.70;;;;;;5072451;28;20429;-72
2021/10/17 10:34:23;;;;;;;7.13;3.78;;;17.90;51.50;;;;;;5074189;28;20097;-72
2021/10/17 10:36:53;;;;;;;6.07;3.72;;;17.70;51.30;;;;;;5036776;28;20039;-72
2021/10/17 10:39:32;;;;;;;5.75;3.03;;;17.70;51.20;;;;;;5060786;28;20028;-74
2021/10/17 10:42:04;;;;;;;6.15;3.30;;;17.70;50.90;;;;;;5057363;28;20375;-71
2021/10/17 10:44:32;;;;;;;6.95;3.17;;;17.70;50.50;;;;;;5056195;28;20040;-71
2021/10/17 10:47:19;;;;;;;6.07;3.70;;;17.60;50.60;;;;;;5056035;28;20032;-71
2021/10/17 10:49:47;;;;;;;7.78;4.05;;;17.80;50.90;;;;;;5064781;28;20036;-74
2021/10/17 10:52:34;;;;;;;7.75;4.22;;;18.70;50.70;;;;;;5070639;28;20066;-72
2021/10/17 10:55:03;;;;;;;7.22;4.43;;;19.90;49.10;;;;;;5075517;28;20035;-72
2021/10/17 10:57:36;;;;;;;6.20;4.00;;;20.90;47.70;;;;;;5066642;28;20036;-72
2021/10/17 11:00:07;;;;;;;6.22;3.40;;;21.60;45.80;;;;;;5068857;28;20390;-72
2021/10/17 11:02:34;;;;;;;7.88;3.05;;;21.90;45.00;;;;;;5084835;28;20028;-72
2021/10/17 11:05:15;;;;;;;4.72;2.78;;;22.20;44.40;;;;;;5093769;28;20062;-72
2021/10/17 11:07:46;;;;;;;8.27;3.17;;;22.60;43.20;;;;;;5065429;28;20029;-72
2021/10/17 11:10:35;;;;;;;5.95;3.15;;;22.90;42.90;;;;;;5087554;28;20539;-72
2021/10/17 11:13:02;;;;;;;5.22;3.17;;;23.30;42.10;;;;;;5070429;28;20032;-72
2021/10/17 11:15:33;;;;;;;6.25;3.72;;;23.30;41.80;;;;;;5076724;28;20028;-72
2021/10/17 11:18:00;;;;;;;7.30;3.65;;;22.80;41.60;;;;;;5052351;28;20047;-72
2021/10/17 11:20:29;;;;;;;7.05;3.63;;;21.90;42.60;;;;;;5067025;28;20028;-70
2021/10/17 11:22:56;;;;;;;5.03;2.95;;;21.00;43.80;;;;;;5076194;28;20535;-71
2021/10/17 11:25:24;;;;;;;6.95;3.67;;;20.40;45.00;;;;;;5060687;28;20432;-72
2021/10/17 11:27:50;;;;;;;7.60;3.65;;;19.70;46.20;;;;;;5081099;28;20074;-72
2021/10/17 11:30:31;;;;;;;9.40;4.45;;;19.20;46.90;;;;;;5061077;28;20040;-72
2021/10/17 11:33:00;;;;;;;7.60;3.88;;;18.70;47.90;;;;;;5081455;28;20028;-72
2021/10/17 11:35:34;;;;;;;5.57;3.60;;;18.20;48.60;;;;;;5070268;28;20050;-70
2021/10/17 11:38:02;;;;;;;6.95;3.70;;;17.90;49.50;;;;;;5063067;28;20077;-72
2021/10/17 11:40:30;;;;;;;6.70;3.85;;;18.00;49.80;;;;;;5062991;28;20032;-70
2021/10/17 11:43:01;;;;;;;7.45;3.90;;;18.60;49.40;;;;;;5058769;28;20097;-72
2021/10/17 11:45:29;;;;;;;6.40;3.70;;;19.00;48.30;;;;;;5060248;28;20028;-70
2021/10/17 11:48:00;;;;;;;8.55;4.22;;;18.90;48.10;;;;;;5083164;28;20138;-72
2021/10/17 11:50:33;;;;;;;7.28;4.28;;;18.70;48.30;;;;;;5084528;28;20102;-74
2021/10/17 11:53:03;;;;;;;6.72;3.78;;;18.90;48.90;;;;;;5092309;28;20036;-72
2021/10/17 11:55:42;;;;;;;5.90;3.35;;;19.50;48.40;;;;;;5063059;28;20036;-72
2021/10/17 11:58:18;;;;;;;6.85;3.90;;;20.20;47.30;;;;;;5062674;28;20103;-71
2021/10/17 12:00:46;;;;;;;7.15;4.20;;;20.60;45.90;;;;;;5088041;28;20088;-72
2021/10/17 12:03:12;;;;;;;6.43;4.00;;;20.20;45.50;;;;;;5092732;28;20024;-72
2021/10/17 12:05:44;;;;;;;7.07;3.97;;;19.50;46.30;;;;;;5067132;28;20118;-72
2021/10/17 12:08:26;;;;;;;7.10;4.40;;;18.80;47.30;;;;;;5084920;28;20528;-71
2021/10/17 12:11:07;;;;;;;7.82;3.83;;;18.50;48.70;;;;;;5066781;28;20067;-71
2021/10/17 12:13:43;;;;;;;5.85;3.42;;;18.90;48.50;;;;;;5066663;28;20025;-72
2021/10/17 12:16:15;;;;;;;6.78;3.70;;;19.00;47.60;;;;;;5060922;28;20055;-74
2021/10/17 12:18:44;;;;;;;6.45;3.35;;;18.60;47.60;;;;;;5061760;28;20024;-72
2021/10/17 12:21:11;;;;;;;7.38;3.53;;;18.20;47.90;;;;;;5076621;28;20054;-75
2021/10/17 12:23:38;;;;;;;6.45;3.25;;;17.70;48.60;;;;;;5061450;28;20039;-74
2021/10/17 12:26:04;;;;;;;8.73;3.72;;;17.30;49.40;;;;;;5085354;28;20147;-74
2021/10/17 12:28:30;;;;;;;8.10;3.95;;;16.90;50.10;;;;;;5065259;28;20032;-72
2021/10/17 12:30:59;;;;;;;7.63;3.95;;;16.70;50.70;;;;;;5079591;28;20036;-73
2021/10/17 12:33:35;;;;;;;8.63;3.78;;;16.50;51.80;;;;;;5065236;28;20039;-72
2021/10/17 12:36:02;;;;;;;6.80;3.78;;;16.40;52.10;;;;;;5075120;28;20504;-73
2021/10/17 12:38:34;;;;;;;6.38;3.38;;;16.20;52.30;;;;;;5066370;28;20033;-73